createdAt,value
2019-05-09T00:00:33.288Z,77
2019-05-09T00:01:06.993Z,77
2019-05-09T00:01:44.444Z,78
2019-05-09T00:02:18.952Z,78
2019-05-09T00:02:55.034Z,78
2019-05-09T00:03:32.963Z,78
2019-05-09T00:04:06.966Z,78
2019-05-09T00:04:44.633Z,78
2019-05-09T00:05:19.028Z,78
2019-05-09T00:05:55.000Z,79
2019-05-09T00:06:30.971Z,79
2019-05-09T00:07:06.954Z,79
2019-05-09T00:07:44.546Z,79
2019-05-09T00:08:18.996Z,79
2019-05-09T00:08:54.972Z,79
2019-05-09T00:09:30.948Z,80
2019-05-09T00:10:07.023Z,80
2019-05-09T00:10:45.665Z,80
2019-05-09T00:11:19.001Z,80
2019-05-09T00:11:54.948Z,80
2019-05-09T00:12:33.318Z,80
2019-05-09T00:13:06.988Z,81
2019-05-09T00:13:44.093Z,81
2019-05-09T00:14:18.942Z,81
2019-05-09T00:14:55.019Z,81
2019-05-09T00:15:33.439Z,81
2019-05-09T00:16:06.961Z,82
2019-05-09T00:16:44.483Z,82
2019-05-09T00:17:19.023Z,82
2019-05-09T00:17:55.039Z,82
2019-05-09T00:18:30.958Z,82
2019-05-09T00:19:06.942Z,82
2019-05-09T00:19:44.488Z,82
2019-05-09T00:20:18.978Z,82
2019-05-09T00:20:54.952Z,82
2019-05-09T00:21:33.463Z,83
2019-05-09T00:22:07.289Z,83
2019-05-09T00:22:44.128Z,83
2019-05-09T00:23:19.028Z,83
2019-05-09T00:23:54.941Z,83
2019-05-09T00:24:33.408Z,84
2019-05-09T00:25:07.057Z,84
2019-05-09T00:25:43.906Z,84
2019-05-09T00:26:19.056Z,84
2019-05-09T00:26:55.002Z,84
2019-05-09T00:27:33.196Z,84
2019-05-09T00:28:06.966Z,84
2019-05-09T00:28:44.657Z,84
2019-05-09T00:29:19.077Z,84
2019-05-09T00:29:54.973Z,84
2019-05-09T00:30:32.756Z,84
2019-05-09T00:31:07.030Z,84
2019-05-09T00:31:44.399Z,84
2019-05-09T00:32:18.965Z,85
2019-05-09T00:32:54.938Z,85
2019-05-09T00:33:31.049Z,85
2019-05-09T00:34:07.226Z,85
2019-05-09T00:34:44.763Z,85
2019-05-09T00:35:18.957Z,85
2019-05-09T00:35:55.027Z,85
2019-05-09T00:36:32.899Z,85
2019-05-09T00:37:07.210Z,85
2019-05-09T00:37:54.977Z,85
2019-05-09T00:38:33.578Z,85
2019-05-09T00:39:07.339Z,85
2019-05-09T00:39:44.034Z,85
2019-05-09T00:40:18.966Z,84
2019-05-09T00:40:59.543Z,84
2019-05-09T00:41:33.303Z,84
2019-05-09T00:42:07.042Z,84
2019-05-09T00:42:44.702Z,84
2019-05-09T00:43:18.924Z,84
2019-05-09T00:43:55.013Z,84
2019-05-09T00:44:31.036Z,84
2019-05-09T00:45:07.089Z,84
2019-05-09T00:45:44.458Z,84
2019-05-09T00:46:19.015Z,84
2019-05-09T00:46:54.983Z,83
2019-05-09T00:47:33.247Z,84
2019-05-09T00:48:06.946Z,84
2019-05-09T00:48:44.472Z,83
2019-05-09T00:49:18.987Z,83
2019-05-09T00:49:55.025Z,83
2019-05-09T00:50:30.947Z,83
2019-05-09T00:51:07.283Z,83
2019-05-09T00:51:55.017Z,83
2019-05-09T00:52:30.998Z,83
2019-05-09T00:53:07.196Z,83
2019-05-09T00:53:45.017Z,83
2019-05-09T00:54:19.014Z,83
2019-05-09T00:54:55.045Z,83
2019-05-09T00:55:32.674Z,83
2019-05-09T00:56:07.140Z,83
2019-05-09T00:56:44.219Z,83
2019-05-09T00:57:18.979Z,83
2019-05-09T00:57:54.933Z,83
2019-05-09T00:58:32.770Z,83
2019-05-09T00:59:07.045Z,83
2019-05-09T00:59:45.144Z,83
2019-05-09T01:00:18.980Z,83
2019-05-09T01:00:54.912Z,83
2019-05-09T01:01:44.316Z,83
2019-05-09T01:02:18.994Z,84
2019-05-09T01:02:54.992Z,84
2019-05-09T01:03:30.932Z,84
2019-05-09T01:04:07.154Z,85
2019-05-09T01:04:44.379Z,84
2019-05-09T01:05:19.012Z,85
2019-05-09T01:05:54.963Z,84
2019-05-09T01:06:31.016Z,84
2019-05-09T01:07:07.227Z,85
2019-05-09T01:07:54.985Z,85
2019-05-09T01:08:32.851Z,85
2019-05-09T01:09:18.981Z,85
2019-05-09T01:09:54.950Z,85
2019-05-09T01:10:31.060Z,85
2019-05-09T01:11:15.758Z,85
2019-05-09T01:11:44.590Z,85
2019-05-09T01:12:18.921Z,84
2019-05-09T01:12:55.005Z,84
2019-05-09T01:13:30.977Z,84
2019-05-09T01:14:07.186Z,84
2019-05-09T01:14:43.846Z,84
2019-05-09T01:15:19.020Z,84
2019-05-09T01:15:55.058Z,84
2019-05-09T01:16:33.227Z,83
2019-05-09T01:17:07.159Z,83
2019-05-09T01:17:44.715Z,83
2019-05-09T01:18:18.968Z,83
2019-05-09T01:18:55.231Z,83
2019-05-09T01:19:30.908Z,83
2019-05-09T01:20:07.308Z,84
2019-05-09T01:20:44.639Z,84
2019-05-09T01:21:18.978Z,84
2019-05-09T01:21:54.913Z,84
2019-05-09T01:22:33.420Z,84
2019-05-09T01:23:07.326Z,84
2019-05-09T01:23:44.243Z,84
2019-05-09T01:24:44.847Z,84
2019-05-09T01:25:18.946Z,84
2019-05-09T01:25:54.904Z,85
2019-05-09T01:26:33.597Z,85
2019-05-09T01:27:06.964Z,85
2019-05-09T01:27:43.752Z,85
2019-05-09T01:28:18.912Z,85
2019-05-09T01:28:55.001Z,85
2019-05-09T01:29:30.950Z,85
2019-05-09T01:30:07.176Z,85
2019-05-09T01:30:44.419Z,85
2019-05-09T01:31:18.978Z,85
2019-05-09T01:32:07.069Z,85
2019-05-09T01:32:43.959Z,85
2019-05-09T01:33:18.925Z,85
2019-05-09T01:33:54.888Z,85
2019-05-09T01:34:33.375Z,84
2019-05-09T01:35:18.980Z,85
2019-05-09T01:35:54.948Z,85
2019-05-09T01:36:30.932Z,84
2019-05-09T01:37:07.195Z,84
2019-05-09T01:37:43.987Z,84
2019-05-09T01:38:18.961Z,84
2019-05-09T01:38:54.924Z,83
2019-05-09T01:39:30.899Z,84
2019-05-09T01:40:07.034Z,84
2019-05-09T01:40:44.496Z,84
2019-05-09T01:41:34.166Z,83
2019-05-09T01:42:31.032Z,84
2019-05-09T01:43:07.181Z,84
2019-05-09T01:43:44.840Z,84
2019-05-09T01:44:18.892Z,83
2019-05-09T01:44:54.967Z,84
2019-05-09T01:45:30.986Z,84
2019-05-09T01:46:07.159Z,84
2019-05-09T01:46:54.910Z,84
2019-05-09T01:47:31.117Z,84
2019-05-09T01:48:07.210Z,84
2019-05-09T01:48:43.728Z,84
2019-05-09T01:49:18.899Z,84
2019-05-09T01:49:54.992Z,84
2019-05-09T01:50:30.960Z,84
2019-05-09T01:51:07.043Z,84
2019-05-09T01:51:45.032Z,84
2019-05-09T01:52:18.999Z,84
2019-05-09T01:52:55.000Z,85
2019-05-09T01:53:33.197Z,85
2019-05-09T01:54:07.271Z,84
2019-05-09T01:54:44.171Z,84
2019-05-09T01:55:18.961Z,84
2019-05-09T01:55:54.937Z,84
2019-05-09T01:56:30.887Z,85
2019-05-09T01:57:07.085Z,85
2019-05-09T01:57:48.372Z,85
2019-05-09T01:58:19.006Z,84
2019-05-09T01:58:54.903Z,84
2019-05-09T01:59:30.975Z,85
2019-05-09T02:00:33.023Z,85
2019-05-09T02:01:07.029Z,85
2019-05-09T02:01:54.991Z,85
2019-05-09T02:02:30.985Z,84
2019-05-09T02:03:07.168Z,85
2019-05-09T02:03:44.881Z,85
2019-05-09T02:04:18.983Z,85
2019-05-09T02:04:54.956Z,85
2019-05-09T02:05:30.910Z,85
2019-05-09T02:06:18.926Z,85
2019-05-09T02:06:54.888Z,85
2019-05-09T02:07:32.686Z,86
2019-05-09T02:08:06.944Z,86
2019-05-09T02:08:44.489Z,85
2019-05-09T02:09:18.873Z,85
2019-05-09T02:09:54.989Z,85
2019-05-09T02:10:30.958Z,86
2019-05-09T02:11:06.910Z,85
2019-05-09T02:11:46.064Z,86
2019-05-09T02:12:18.958Z,86
2019-05-09T02:12:54.943Z,86
2019-05-09T02:13:30.905Z,86
2019-05-09T02:14:30.988Z,86
2019-05-09T02:15:18.939Z,87
2019-05-09T02:15:54.946Z,86
2019-05-09T02:16:30.869Z,87
2019-05-09T02:17:18.875Z,87
2019-05-09T02:18:05.462Z,87
2019-05-09T02:18:32.860Z,87
2019-05-09T02:19:07.153Z,87
2019-05-09T02:19:44.529Z,87
2019-05-09T02:20:18.957Z,87
2019-05-09T02:20:54.936Z,87
2019-05-09T02:21:30.906Z,87
2019-05-09T02:22:07.361Z,87
2019-05-09T02:22:44.112Z,87
2019-05-09T02:23:18.928Z,87
2019-05-09T02:23:54.901Z,88
2019-05-09T02:24:30.862Z,87
2019-05-09T02:25:07.090Z,87
2019-05-09T02:25:44.419Z,88
2019-05-09T02:26:18.932Z,88
2019-05-09T02:26:54.981Z,88
2019-05-09T02:27:33.005Z,88
2019-05-09T02:28:07.047Z,88
2019-05-09T02:28:43.905Z,88
2019-05-09T02:29:19.006Z,88
2019-05-09T02:29:55.017Z,88
2019-05-09T02:30:30.977Z,88
2019-05-09T02:31:06.957Z,88
2019-05-09T02:31:45.308Z,88
2019-05-09T02:32:18.961Z,88
2019-05-09T02:32:55.367Z,88
2019-05-09T02:33:33.881Z,88
2019-05-09T02:34:07.237Z,89
2019-05-09T02:34:44.878Z,88
2019-05-09T02:35:18.924Z,89
2019-05-09T02:36:02.610Z,89
2019-05-09T02:36:30.978Z,89
2019-05-09T02:37:09.847Z,89
2019-05-09T02:37:42.913Z,89
2019-05-09T02:38:20.591Z,89
2019-05-09T02:38:54.981Z,89
2019-05-09T02:39:30.948Z,89
2019-05-09T02:40:10.909Z,89
2019-05-09T02:40:42.899Z,89
2019-05-09T02:41:20.540Z,89
2019-05-09T02:42:14.486Z,89
2019-05-09T02:43:10.653Z,89
2019-05-09T02:43:42.956Z,89
2019-05-09T02:44:20.306Z,89
2019-05-09T02:44:54.905Z,89
2019-05-09T02:45:30.870Z,89
2019-05-09T02:46:10.415Z,89
2019-05-09T02:46:43.000Z,89
2019-05-09T02:47:18.906Z,89
2019-05-09T02:47:54.890Z,89
2019-05-09T02:48:30.963Z,89
2019-05-09T02:49:09.483Z,89
2019-05-09T02:49:42.936Z,89
2019-05-09T02:50:20.188Z,89
2019-05-09T02:51:09.826Z,89
2019-05-09T02:51:43.030Z,89
2019-05-09T02:52:20.432Z,89
2019-05-09T02:52:54.910Z,89
2019-05-09T02:53:30.873Z,89
2019-05-09T02:54:10.627Z,89
2019-05-09T02:54:42.932Z,89
2019-05-09T02:55:19.275Z,89
2019-05-09T02:55:54.879Z,89
2019-05-09T02:56:57.742Z,89
2019-05-09T02:57:30.866Z,88
2019-05-09T02:58:08.848Z,88
2019-05-09T02:58:54.959Z,88
2019-05-09T02:59:42.956Z,88
2019-05-09T03:00:20.841Z,88
2019-05-09T03:00:54.887Z,88
2019-05-09T03:01:30.892Z,88
2019-05-09T03:02:10.248Z,88
2019-05-09T03:02:42.911Z,88
2019-05-09T03:03:20.471Z,88
2019-05-09T03:03:54.848Z,88
2019-05-09T03:04:30.952Z,88
2019-05-09T03:05:09.478Z,88
2019-05-09T03:05:42.886Z,88
2019-05-09T03:06:20.280Z,88
2019-05-09T03:06:54.934Z,88
2019-05-09T03:07:30.955Z,88
2019-05-09T03:08:10.186Z,88
2019-05-09T03:08:42.997Z,88
2019-05-09T03:09:19.735Z,88
2019-05-09T03:09:54.923Z,88
2019-05-09T03:10:30.882Z,88
2019-05-09T03:11:10.560Z,88
2019-05-09T03:11:42.940Z,88
2019-05-09T03:12:39.100Z,88
2019-05-09T03:12:54.868Z,88
2019-05-09T03:13:30.955Z,88
2019-05-09T03:14:09.809Z,88
2019-05-09T03:14:42.933Z,88
2019-05-09T03:15:19.373Z,88
2019-05-09T03:15:58.321Z,88
2019-05-09T03:16:31.014Z,88
2019-05-09T03:17:09.575Z,88
2019-05-09T03:17:42.905Z,87
2019-05-09T03:18:19.146Z,87
2019-05-09T03:18:54.944Z,87
2019-05-09T03:19:31.171Z,87
2019-05-09T03:20:10.103Z,87
2019-05-09T03:21:09.772Z,87
2019-05-09T03:21:42.857Z,87
2019-05-09T03:22:19.476Z,87
2019-05-09T03:22:54.968Z,87
2019-05-09T03:23:30.901Z,87
2019-05-09T03:24:10.658Z,87
2019-05-09T03:24:42.995Z,87
2019-05-09T03:25:19.853Z,87
2019-05-09T03:25:54.883Z,87
2019-05-09T03:26:30.861Z,87
2019-05-09T03:27:09.244Z,87
2019-05-09T03:27:42.913Z,86
2019-05-09T03:28:19.175Z,86
2019-05-09T03:28:54.877Z,86
2019-05-09T03:29:30.970Z,86
2019-05-09T03:30:21.546Z,86
2019-05-09T03:30:58.754Z,86
2019-05-09T03:31:30.960Z,86
2019-05-09T03:32:10.063Z,86
2019-05-09T03:32:54.867Z,86
2019-05-09T03:33:40.937Z,86
2019-05-09T03:34:10.172Z,86
2019-05-09T03:34:42.861Z,86
2019-05-09T03:35:18.853Z,86
2019-05-09T03:35:54.930Z,86
2019-05-09T03:36:30.903Z,86
2019-05-09T03:37:09.041Z,86
2019-05-09T03:37:42.845Z,86
2019-05-09T03:38:18.916Z,86
2019-05-09T03:38:54.926Z,86
2019-05-09T03:39:30.860Z,86
2019-05-09T03:40:08.468Z,86
2019-05-09T03:40:42.924Z,86
2019-05-09T03:41:18.897Z,87
2019-05-09T03:41:57.186Z,86
2019-05-09T03:42:44.184Z,87
2019-05-09T03:43:08.594Z,87
2019-05-09T03:43:42.901Z,87
2019-05-09T03:44:18.925Z,87
2019-05-09T03:44:54.956Z,87
2019-05-09T03:45:30.923Z,87
2019-05-09T03:46:08.409Z,87
2019-05-09T03:46:42.947Z,87
2019-05-09T03:48:18.870Z,87
2019-05-09T03:48:54.968Z,87
2019-05-09T03:49:30.952Z,87
2019-05-09T03:50:42.866Z,87
2019-05-09T03:52:18.852Z,87
2019-05-09T03:52:54.944Z,87
2019-05-09T03:53:42.942Z,87
2019-05-09T03:54:54.917Z,87
2019-05-09T03:55:30.835Z,87
2019-05-09T03:57:54.843Z,87
2019-05-09T03:58:30.955Z,87
2019-05-09T04:00:30.909Z,87
2019-05-09T04:01:30.913Z,87
2019-05-09T04:02:18.978Z,87
2019-05-09T04:03:20.919Z,87
2019-05-09T04:04:30.877Z,88
2019-05-09T04:05:08.713Z,88
2019-05-09T04:06:08.906Z,88
2019-05-09T04:06:42.822Z,88
2019-05-09T04:07:19.317Z,88
2019-05-09T04:08:07.888Z,87
2019-05-09T04:10:08.348Z,87
2019-05-09T04:11:09.269Z,87
2019-05-09T04:12:59.856Z,88
2019-05-09T04:13:30.883Z,88
2019-05-09T04:14:08.778Z,87
2019-05-09T04:17:18.893Z,88
2019-05-09T04:18:18.876Z,88
2019-05-09T04:19:08.879Z,88
2019-05-09T04:20:18.826Z,87
2019-05-09T04:21:54.811Z,88
2019-05-09T04:22:31.014Z,88
2019-05-09T04:23:08.506Z,88
2019-05-09T04:24:30.862Z,88
2019-05-09T04:25:18.894Z,88
2019-05-09T04:27:30.978Z,88
2019-05-09T04:28:30.835Z,88
2019-05-09T04:31:07.970Z,88
2019-05-09T04:33:18.889Z,88
2019-05-09T04:35:30.911Z,88
2019-05-09T04:36:54.873Z,88
2019-05-09T04:37:31.707Z,88
2019-05-09T04:38:07.987Z,88
2019-05-09T04:38:42.933Z,88
2019-05-09T04:40:03.600Z,88
2019-05-09T04:40:54.879Z,88
2019-05-09T04:41:30.869Z,88
2019-05-09T04:42:08.984Z,88
2019-05-09T04:43:36.886Z,87
2019-05-09T04:44:21.855Z,87
2019-05-09T04:45:10.646Z,87
2019-05-09T04:45:42.879Z,88
2019-05-09T04:46:24.846Z,87
2019-05-09T04:47:03.906Z,88
2019-05-09T04:48:24.502Z,87
2019-05-09T04:49:54.899Z,87
2019-05-09T04:50:42.888Z,87
2019-05-09T04:51:18.861Z,87
2019-05-09T04:51:54.831Z,87
2019-05-09T04:52:30.801Z,87
2019-05-09T04:53:54.900Z,87
2019-05-09T04:54:54.795Z,87
2019-05-09T04:56:30.804Z,87
2019-05-09T04:57:42.867Z,87
2019-05-09T04:58:54.816Z,87
2019-05-09T04:59:30.882Z,87
2019-05-09T05:00:10.486Z,87
2019-05-09T05:00:42.860Z,87
2019-05-09T05:01:20.329Z,87
2019-05-09T05:02:42.875Z,87
2019-05-09T05:03:18.927Z,87
2019-05-09T05:03:57.094Z,87
2019-05-09T05:04:30.919Z,87
2019-05-09T05:05:08.386Z,87
2019-05-09T05:05:43.072Z,87
2019-05-09T05:06:30.845Z,87
2019-05-09T05:07:30.885Z,87
2019-05-09T05:08:08.124Z,87
2019-05-09T05:08:42.820Z,87
2019-05-09T05:09:21.999Z,87
2019-05-09T05:09:54.859Z,87
2019-05-09T05:10:30.860Z,87
2019-05-09T05:11:18.839Z,87
2019-05-09T05:11:54.814Z,87
2019-05-09T05:12:30.897Z,86
2019-05-09T05:13:26.571Z,86
2019-05-09T05:14:18.832Z,86
2019-05-09T05:14:54.890Z,86
2019-05-09T05:15:30.861Z,86
2019-05-09T05:16:08.991Z,86
2019-05-09T05:16:42.899Z,86
2019-05-09T05:17:18.899Z,86
2019-05-09T05:17:54.863Z,86
2019-05-09T05:18:30.844Z,86
2019-05-09T05:19:08.113Z,86
2019-05-09T05:19:42.882Z,86
2019-05-09T05:20:30.888Z,86
2019-05-09T05:21:30.798Z,86
2019-05-09T05:22:18.962Z,86
2019-05-09T05:23:18.866Z,86
2019-05-09T05:24:08.768Z,86
2019-05-09T05:25:00.218Z,86
2019-05-09T05:25:30.792Z,86
2019-05-09T05:26:09.600Z,86
2019-05-09T05:26:42.861Z,86
2019-05-09T05:27:30.867Z,86
2019-05-09T05:28:09.196Z,86
2019-05-09T05:28:42.796Z,85
2019-05-09T05:29:18.928Z,85
2019-05-09T05:29:54.850Z,85
2019-05-09T05:30:30.824Z,85
2019-05-09T05:31:08.002Z,85
2019-05-09T05:31:42.867Z,85
2019-05-09T05:32:18.853Z,85
2019-05-09T05:32:54.819Z,85
2019-05-09T05:33:30.779Z,85
2019-05-09T05:34:08.902Z,85
2019-05-09T05:34:42.859Z,85
2019-05-09T05:35:18.811Z,85
2019-05-09T05:35:54.786Z,85
2019-05-09T05:36:30.870Z,85
2019-05-09T05:37:08.120Z,85
2019-05-09T05:37:42.804Z,85
2019-05-09T05:38:18.771Z,85
2019-05-09T05:38:54.880Z,85
2019-05-09T05:39:30.851Z,84
2019-05-09T05:40:08.431Z,85
2019-05-09T05:40:57.256Z,84
2019-05-09T05:41:30.778Z,84
2019-05-09T05:42:08.877Z,84
2019-05-09T05:42:42.848Z,84
2019-05-09T05:43:18.820Z,84
2019-05-09T05:43:54.772Z,84
2019-05-09T05:44:30.862Z,84
2019-05-09T05:45:08.126Z,84
2019-05-09T05:45:42.793Z,84
2019-05-09T05:46:18.938Z,84
2019-05-09T05:46:54.869Z,84
2019-05-09T05:47:30.848Z,85
2019-05-09T05:48:08.459Z,85
2019-05-09T05:48:42.882Z,84
2019-05-09T05:49:30.877Z,84
2019-05-09T05:50:08.977Z,84
2019-05-09T05:50:42.838Z,83
2019-05-09T05:51:19.039Z,83
2019-05-09T05:51:54.886Z,84
2019-05-09T05:52:30.854Z,84
2019-05-09T05:53:08.582Z,83
2019-05-09T05:53:42.798Z,83
2019-05-09T05:54:18.876Z,83
2019-05-09T05:54:54.848Z,83
2019-05-09T05:55:30.838Z,83
2019-05-09T05:56:09.041Z,83
2019-05-09T05:56:42.870Z,83
2019-05-09T05:57:18.853Z,83
2019-05-09T05:57:54.825Z,83
2019-05-09T05:58:30.803Z,83
2019-05-09T05:59:18.779Z,83
2019-05-09T05:59:54.926Z,83
2019-05-09T06:00:42.879Z,83
2019-05-09T06:01:19.459Z,83
2019-05-09T06:01:54.837Z,83
2019-05-09T06:02:30.782Z,83
2019-05-09T06:03:09.265Z,83
2019-05-09T06:03:42.853Z,84
2019-05-09T06:04:19.362Z,84
2019-05-09T06:04:54.775Z,84
2019-05-09T06:05:42.787Z,83
2019-05-09T06:06:18.871Z,83
2019-05-09T06:06:54.852Z,83
2019-05-09T06:07:30.812Z,83
2019-05-09T06:08:08.787Z,83
2019-05-09T06:08:42.865Z,84
2019-05-09T06:09:19.729Z,83
2019-05-09T06:09:54.800Z,83
2019-05-09T06:10:30.803Z,83
2019-05-09T06:11:12.676Z,83
2019-05-09T06:11:42.850Z,83
2019-05-09T06:12:19.123Z,83
2019-05-09T06:12:54.782Z,83
2019-05-09T06:13:30.855Z,83
2019-05-09T06:14:12.359Z,82
2019-05-09T06:14:42.787Z,82
2019-05-09T06:15:19.029Z,82
2019-05-09T06:15:54.881Z,82
2019-05-09T06:16:30.831Z,83
2019-05-09T06:17:08.653Z,82
2019-05-09T06:17:42.756Z,82
2019-05-09T06:18:19.108Z,82
2019-05-09T06:18:54.858Z,82
2019-05-09T06:19:30.795Z,82
2019-05-09T06:20:09.493Z,82
2019-05-09T06:20:49.002Z,82
2019-05-09T06:21:18.878Z,82
2019-05-09T06:21:54.798Z,82
2019-05-09T06:22:30.752Z,82
2019-05-09T06:23:09.150Z,82
2019-05-09T06:23:42.818Z,82
2019-05-09T06:24:18.818Z,82
2019-05-09T06:24:54.787Z,82
2019-05-09T06:25:31.499Z,82
2019-05-09T06:26:10.915Z,82
2019-05-09T06:26:42.790Z,82
2019-05-09T06:27:18.942Z,82
2019-05-09T06:27:54.848Z,81
2019-05-09T06:28:30.813Z,81
2019-05-09T06:29:08.652Z,81
2019-05-09T06:29:42.740Z,82
2019-05-09T06:30:30.892Z,81
2019-05-09T06:31:08.141Z,82
2019-05-09T06:31:42.812Z,82
2019-05-09T06:32:19.460Z,82
2019-05-09T06:32:54.870Z,82
2019-05-09T06:33:30.849Z,81
2019-05-09T06:34:19.629Z,81
2019-05-09T06:34:54.827Z,80
2019-05-09T06:35:30.766Z,80
2019-05-09T06:36:08.829Z,81
2019-05-09T06:36:42.899Z,81
2019-05-09T06:37:19.079Z,81
2019-05-09T06:37:54.819Z,81
2019-05-09T06:38:30.882Z,81
2019-05-09T06:39:08.940Z,81
2019-05-09T06:39:42.818Z,81
2019-05-09T06:40:21.984Z,81
2019-05-09T06:40:54.857Z,81
2019-05-09T06:41:30.825Z,81
2019-05-09T06:42:09.773Z,81
2019-05-09T06:42:42.772Z,81
2019-05-09T06:43:19.296Z,81
2019-05-09T06:44:20.346Z,81
2019-05-09T06:44:42.823Z,81
2019-05-09T06:45:18.796Z,81
2019-05-09T06:45:54.776Z,81
2019-05-09T06:46:30.848Z,81
2019-05-09T06:47:08.934Z,81
2019-05-09T06:47:42.793Z,81
2019-05-09T06:48:18.750Z,81
2019-05-09T06:49:27.059Z,81
2019-05-09T06:50:08.604Z,81
2019-05-09T06:50:42.753Z,81
2019-05-09T06:51:21.861Z,81
2019-05-09T06:51:54.814Z,81
2019-05-09T06:52:30.791Z,81
2019-05-09T06:53:08.626Z,81
2019-05-09T06:53:42.842Z,81
2019-05-09T06:54:18.809Z,81
2019-05-09T06:54:54.810Z,81
2019-05-09T06:55:30.777Z,81
2019-05-09T06:56:08.073Z,81
2019-05-09T06:57:19.318Z,80
2019-05-09T06:58:09.452Z,81
2019-05-09T06:58:42.753Z,81
2019-05-09T06:59:19.710Z,81
2019-05-09T06:59:54.810Z,81
2019-05-09T07:00:42.806Z,80
2019-05-09T07:01:18.939Z,80
2019-05-09T07:01:54.726Z,80
2019-05-09T07:02:30.907Z,80
2019-05-09T07:03:08.751Z,81
2019-05-09T07:03:42.765Z,80
2019-05-09T07:04:18.933Z,80
2019-05-09T07:04:54.825Z,80
2019-05-09T07:05:30.799Z,80
2019-05-09T07:06:08.940Z,80
2019-05-09T07:06:42.733Z,80
2019-05-09T07:07:18.823Z,80
2019-05-09T07:07:54.802Z,80
2019-05-09T07:08:32.041Z,80
2019-05-09T07:09:09.003Z,80
2019-05-09T07:09:42.830Z,80
2019-05-09T07:10:18.791Z,80
2019-05-09T07:10:54.754Z,80
2019-05-09T07:11:30.729Z,80
2019-05-09T07:12:08.508Z,80
2019-05-09T07:12:42.784Z,80
2019-05-09T07:13:18.871Z,80
2019-05-09T07:13:54.735Z,79
2019-05-09T07:14:41.409Z,79
2019-05-09T07:15:09.471Z,79
2019-05-09T07:15:42.752Z,79
2019-05-09T07:16:19.312Z,79
2019-05-09T07:16:54.816Z,79
2019-05-09T07:17:32.596Z,79
2019-05-09T07:18:08.737Z,79
2019-05-09T07:18:42.857Z,78
2019-05-09T07:19:18.821Z,78
2019-05-09T07:19:54.781Z,78
2019-05-09T07:20:30.754Z,78
2019-05-09T07:21:08.874Z,77
2019-05-09T07:21:42.815Z,78
2019-05-09T07:22:19.164Z,78
2019-05-09T07:22:54.781Z,78
2019-05-09T07:23:30.849Z,78
2019-05-09T07:24:19.103Z,76
2019-05-09T07:25:10.647Z,76
2019-05-09T07:26:08.326Z,78
2019-05-09T07:26:42.828Z,77
2019-05-09T07:27:18.796Z,76
2019-05-09T07:27:54.767Z,76
2019-05-09T07:28:30.769Z,76
2019-05-09T07:29:08.077Z,78
2019-05-09T07:29:42.802Z,77
2019-05-09T07:30:18.767Z,77
2019-05-09T07:30:54.750Z,77
2019-05-09T07:31:30.826Z,77
2019-05-09T07:32:08.125Z,76
2019-05-09T07:32:42.766Z,76
2019-05-09T07:33:19.993Z,76
2019-05-09T07:33:54.841Z,76
2019-05-09T07:34:30.783Z,75
2019-05-09T07:35:09.389Z,74
2019-05-09T07:35:42.732Z,74
2019-05-09T07:36:19.597Z,74
2019-05-09T07:36:54.799Z,75
2019-05-09T07:37:30.749Z,75
2019-05-09T07:38:09.050Z,75
2019-05-09T07:38:42.845Z,76
2019-05-09T07:39:18.814Z,75
2019-05-09T07:39:54.888Z,76
2019-05-09T07:40:31.319Z,75
2019-05-09T07:41:18.724Z,74
2019-05-09T07:41:54.813Z,73
2019-05-09T07:42:30.790Z,72
2019-05-09T07:43:18.782Z,72
2019-05-09T07:43:54.793Z,73
2019-05-09T07:44:52.637Z,73
2019-05-09T07:45:09.377Z,72
2019-05-09T07:45:42.800Z,73
2019-05-09T07:46:18.788Z,72
2019-05-09T07:46:54.712Z,73
2019-05-09T07:47:30.820Z,73
2019-05-09T07:48:08.205Z,73
2019-05-09T07:48:57.487Z,73
2019-05-09T07:49:30.765Z,72
2019-05-09T07:50:09.180Z,73
2019-05-09T07:50:42.807Z,72
2019-05-09T07:51:18.766Z,73
2019-05-09T07:51:54.749Z,72
2019-05-09T07:52:30.706Z,72
2019-05-09T07:53:09.421Z,72
2019-05-09T07:53:42.773Z,73
2019-05-09T07:54:29.559Z,73
2019-05-09T07:55:54.734Z,75
2019-05-09T07:56:30.707Z,73
2019-05-09T07:57:18.933Z,74
2019-05-09T07:57:59.351Z,74
2019-05-09T07:58:42.784Z,73
2019-05-09T07:59:18.779Z,73
2019-05-09T07:59:54.756Z,73
2019-05-09T08:00:30.716Z,72
2019-05-09T08:01:30.819Z,73
2019-05-09T08:02:09.304Z,72
2019-05-09T08:02:42.790Z,72
2019-05-09T08:03:30.783Z,72
2019-05-09T08:04:08.171Z,74
2019-05-09T08:04:42.776Z,72
2019-05-09T08:05:18.745Z,72
2019-05-09T08:06:09.425Z,72
2019-05-09T08:06:42.853Z,73
2019-05-09T08:07:18.752Z,73
2019-05-09T08:08:08.716Z,72
2019-05-09T08:08:42.712Z,73
2019-05-09T08:09:19.336Z,72
2019-05-09T08:09:54.805Z,72
2019-05-09T08:10:33.827Z,72
2019-05-09T08:11:09.455Z,73
2019-05-09T08:11:42.798Z,74
2019-05-09T08:12:18.781Z,73
2019-05-09T08:12:54.768Z,72
2019-05-09T08:13:30.728Z,74
2019-05-09T08:14:11.323Z,73
2019-05-09T08:14:42.768Z,72
2019-05-09T08:15:20.862Z,72
2019-05-09T08:15:54.714Z,72
2019-05-09T08:16:30.801Z,73
2019-05-09T08:17:09.056Z,73
2019-05-09T08:17:42.750Z,71
2019-05-09T08:18:18.714Z,72
2019-05-09T08:18:54.791Z,72
2019-05-09T08:19:30.770Z,72
2019-05-09T08:20:08.581Z,72
2019-05-09T08:20:42.716Z,73
2019-05-09T08:21:18.854Z,73
2019-05-09T08:21:54.766Z,72
2019-05-09T08:23:02.031Z,71
2019-05-09T08:23:18.734Z,72
2019-05-09T08:23:54.697Z,72
2019-05-09T08:24:30.797Z,72
2019-05-09T08:25:08.867Z,70
2019-05-09T08:25:42.806Z,71
2019-05-09T08:26:19.467Z,70
2019-05-09T08:26:54.779Z,71
2019-05-09T08:27:30.960Z,71
2019-05-09T08:28:09.650Z,70
2019-05-09T08:28:42.697Z,70
2019-05-09T08:29:20.824Z,71
2019-05-09T08:29:54.780Z,70
2019-05-09T08:30:40.542Z,71
2019-05-09T08:31:48.729Z,71
2019-05-09T08:32:30.804Z,71
2019-05-09T08:33:08.921Z,71
2019-05-09T08:33:42.733Z,70
2019-05-09T08:34:19.325Z,70
2019-05-09T08:34:54.777Z,69
2019-05-09T08:35:30.760Z,69
2019-05-09T08:36:09.481Z,69
2019-05-09T08:36:42.684Z,70
2019-05-09T08:37:18.775Z,69
2019-05-09T08:37:54.747Z,70
2019-05-09T08:38:30.729Z,70
2019-05-09T08:39:08.772Z,70
2019-05-09T08:39:42.780Z,70
2019-05-09T08:40:21.981Z,69
2019-05-09T08:40:54.707Z,68
2019-05-09T08:41:30.768Z,69
2019-05-09T08:42:09.228Z,68
2019-05-09T08:42:42.746Z,68
2019-05-09T08:43:20.386Z,68
2019-05-09T08:43:54.671Z,68
2019-05-09T08:44:31.917Z,67
2019-05-09T08:45:31.169Z,67
2019-05-09T08:46:18.920Z,68
2019-05-09T08:46:54.776Z,68
2019-05-09T08:47:30.732Z,67
2019-05-09T08:48:09.702Z,67
2019-05-09T08:48:42.672Z,67
2019-05-09T08:49:30.663Z,66
2019-05-09T08:50:08.569Z,66
2019-05-09T08:50:42.735Z,67
2019-05-09T08:51:18.712Z,66
2019-05-09T08:52:19.492Z,66
2019-05-09T08:52:30.754Z,67
2019-05-09T08:53:19.501Z,67
2019-05-09T08:53:54.754Z,67
2019-05-09T08:54:30.686Z,67
2019-05-09T08:55:09.069Z,67
2019-05-09T08:55:54.772Z,68
2019-05-09T08:56:30.769Z,68
2019-05-09T08:57:18.963Z,68
2019-05-09T08:58:08.662Z,67
2019-05-09T08:58:42.737Z,67
2019-05-09T08:59:30.732Z,68
2019-05-09T09:00:08.780Z,69
2019-05-09T09:00:42.663Z,68
2019-05-09T09:02:15.620Z,68
2019-05-09T09:02:21.724Z,68
2019-05-09T09:03:19.190Z,68
2019-05-09T09:03:54.770Z,69
2019-05-09T09:04:42.774Z,68
2019-05-09T09:05:19.367Z,68
2019-05-09T09:05:54.706Z,69
2019-05-09T09:06:30.680Z,68
2019-05-09T09:07:09.040Z,68
2019-05-09T09:07:42.798Z,68
2019-05-09T09:08:19.121Z,68
2019-05-09T09:08:54.679Z,68
2019-05-09T09:10:09.110Z,69
2019-05-09T09:10:42.705Z,68
2019-05-09T09:11:19.440Z,68
2019-05-09T09:11:54.758Z,68
2019-05-09T09:12:34.996Z,68
2019-05-09T09:13:09.515Z,68
2019-05-09T09:13:42.687Z,67
2019-05-09T09:14:19.117Z,67
2019-05-09T09:14:54.772Z,66
2019-05-09T09:16:19.635Z,68
2019-05-09T09:16:22.974Z,68
2019-05-09T09:16:54.663Z,68
2019-05-09T09:17:30.763Z,67
2019-05-09T09:18:09.294Z,68
2019-05-09T09:18:42.723Z,68
2019-05-09T09:19:30.722Z,68
2019-05-09T09:20:08.383Z,67
2019-05-09T09:20:42.764Z,67
2019-05-09T09:21:30.782Z,67
2019-05-09T09:22:18.770Z,67
2019-05-09T09:23:50.882Z,67
2019-05-09T09:24:09.212Z,67
2019-05-09T09:24:42.768Z,68
2019-05-09T09:25:19.170Z,67
2019-05-09T09:25:54.804Z,67
2019-05-09T09:36:18.768Z,66
2019-05-09T10:25:30.684Z,62
2019-05-09T10:34:54.641Z,63
2019-05-09T10:47:20.040Z,64
2019-05-09T10:51:19.251Z,65
2019-05-09T11:01:09.707Z,67
2019-05-09T11:05:19.058Z,68